sensor_id;sensor_type;location;lat;lon;timestamp;P1;durP1;ratioP1;P2;durP2;ratioP2
17207;SDS011;8720;48.488;9.202;2023-03-29T00:00:44;2.53;;;1.70;;
17207;SDS011;8720;48.488;9.202;2023-03-29T00:03:11;1.90;;;1.60;;
17207;SDS011;8720;48.488;9.202;2023-03-29T00:05:38;2.20;;;1.80;;
17207;SDS011;8720;48.488;9.202;2023-03-29T00:08:06;2.20;;;1.80;;
17207;SDS011;8720;48.488;9.202;2023-03-29T00:10:38;4.13;;;2.23;;
17207;SDS011;8720;48.488;9.202;2023-03-29T00:13:06;1.90;;;1.70;;
17207;SDS011;8720;48.488;9.202;2023-03-29T00:15:33;2.60;;;2.10;;
17207;SDS011;8720;48.488;9.202;2023-03-29T00:18:02;3.10;;;2.00;;
17207;SDS011;8720;48.488;9.202;2023-03-29T00:20:30;2.20;;;2.00;;
17207;SDS011;8720;48.488;9.202;2023-03-29T00:22:57;2.00;;;1.60;;
17207;SDS011;8720;48.488;9.202;2023-03-29T00:25:24;3.00;;;1.63;;
17207;SDS011;8720;48.488;9.202;2023-03-29T00:27:51;2.23;;;1.70;;
17207;SDS011;8720;48.488;9.202;2023-03-29T00:30:19;2.10;;;1.90;;
17207;SDS011;8720;48.488;9.202;2023-03-29T00:32:46;2.77;;;1.70;;
17207;SDS011;8720;48.488;9.202;2023-03-29T00:35:15;2.13;;;1.67;;
17207;SDS011;8720;48.488;9.202;2023-03-29T00:37:42;2.73;;;2.17;;
17207;SDS011;8720;48.488;9.202;2023-03-29T00:40:11;3.40;;;1.80;;
17207;SDS011;8720;48.488;9.202;2023-03-29T00:42:42;4.23;;;1.70;;
17207;SDS011;8720;48.488;9.202;2023-03-29T00:45:16;3.90;;;2.10;;
17207;SDS011;8720;48.488;9.202;2023-03-29T00:47:47;4.20;;;2.27;;
17207;SDS011;8720;48.488;9.202;2023-03-29T00:50:19;3.90;;;2.20;;
17207;SDS011;8720;48.488;9.202;2023-03-29T00:52:51;3.40;;;2.43;;
17207;SDS011;8720;48.488;9.202;2023-03-29T00:55:26;5.50;;;2.37;;
17207;SDS011;8720;48.488;9.202;2023-03-29T00:58:00;3.00;;;2.37;;
17207;SDS011;8720;48.488;9.202;2023-03-29T01:00:34;4.10;;;2.50;;
17207;SDS011;8720;48.488;9.202;2023-03-29T01:03:08;4.82;;;3.25;;
17207;SDS011;8720;48.488;9.202;2023-03-29T01:05:42;2.73;;;2.20;;
17207;SDS011;8720;48.488;9.202;2023-03-29T01:08:15;2.93;;;2.10;;
17207;SDS011;8720;48.488;9.202;2023-03-29T01:10:50;3.50;;;2.70;;
17207;SDS011;8720;48.488;9.202;2023-03-29T01:13:27;4.10;;;2.60;;
17207;SDS011;8720;48.488;9.202;2023-03-29T01:16:08;4.07;;;2.80;;
17207;SDS011;8720;48.488;9.202;2023-03-29T01:18:39;4.13;;;2.77;;
17207;SDS011;8720;48.488;9.202;2023-03-29T01:21:12;2.57;;;2.37;;
17207;SDS011;8720;48.488;9.202;2023-03-29T01:27:11;3.23;;;2.43;;
17207;SDS011;8720;48.488;9.202;2023-03-29T01:29:49;2.60;;;2.27;;
17207;SDS011;8720;48.488;9.202;2023-03-29T01:32:22;2.33;;;2.13;;
17207;SDS011;8720;48.488;9.202;2023-03-29T01:34:59;2.97;;;2.60;;
17207;SDS011;8720;48.488;9.202;2023-03-29T01:37:35;3.87;;;2.63;;
17207;SDS011;8720;48.488;9.202;2023-03-29T01:40:09;2.60;;;2.40;;
17207;SDS011;8720;48.488;9.202;2023-03-29T01:42:40;3.00;;;2.70;;
17207;SDS011;8720;48.488;9.202;2023-03-29T01:45:19;4.60;;;2.80;;
17207;SDS011;8720;48.488;9.202;2023-03-29T01:47:53;3.50;;;3.00;;
17207;SDS011;8720;48.488;9.202;2023-03-29T01:50:29;4.30;;;2.87;;
17207;SDS011;8720;48.488;9.202;2023-03-29T01:53:08;3.40;;;3.10;;
17207;SDS011;8720;48.488;9.202;2023-03-29T01:55:44;3.57;;;3.27;;
17207;SDS011;8720;48.488;9.202;2023-03-29T01:58:16;6.17;;;3.30;;
17207;SDS011;8720;48.488;9.202;2023-03-29T02:03:30;3.80;;;3.00;;
17207;SDS011;8720;48.488;9.202;2023-03-29T02:06:06;4.30;;;2.93;;
17207;SDS011;8720;48.488;9.202;2023-03-29T02:08:36;4.30;;;3.90;;
17207;SDS011;8720;48.488;9.202;2023-03-29T02:11:06;3.67;;;2.63;;
17207;SDS011;8720;48.488;9.202;2023-03-29T02:13:34;3.80;;;2.90;;
17207;SDS011;8720;48.488;9.202;2023-03-29T02:16:02;5.33;;;2.70;;
17207;SDS011;8720;48.488;9.202;2023-03-29T02:18:38;2.33;;;2.13;;
17207;SDS011;8720;48.488;9.202;2023-03-29T02:21:10;4.23;;;2.43;;
17207;SDS011;8720;48.488;9.202;2023-03-29T02:23:47;3.13;;;2.47;;
17207;SDS011;8720;48.488;9.202;2023-03-29T02:26:18;3.60;;;2.87;;
17207;SDS011;8720;48.488;9.202;2023-03-29T02:28:48;3.60;;;2.60;;
17207;SDS011;8720;48.488;9.202;2023-03-29T02:31:18;3.73;;;2.80;;
17207;SDS011;8720;48.488;9.202;2023-03-29T02:33:53;2.67;;;2.33;;
17207;SDS011;8720;48.488;9.202;2023-03-29T02:36:27;2.83;;;2.10;;
17207;SDS011;8720;48.488;9.202;2023-03-29T02:39:02;5.07;;;2.40;;
17207;SDS011;8720;48.488;9.202;2023-03-29T02:41:32;3.27;;;2.60;;
17207;SDS011;8720;48.488;9.202;2023-03-29T02:44:04;2.30;;;1.67;;
17207;SDS011;8720;48.488;9.202;2023-03-29T02:46:35;2.07;;;1.60;;
17207;SDS011;8720;48.488;9.202;2023-03-29T02:49:04;1.80;;;1.50;;
17207;SDS011;8720;48.488;9.202;2023-03-29T02:51:34;3.67;;;1.30;;
17207;SDS011;8720;48.488;9.202;2023-03-29T02:54:04;1.50;;;1.40;;
17207;SDS011;8720;48.488;9.202;2023-03-29T02:56:40;1.30;;;1.10;;
17207;SDS011;8720;48.488;9.202;2023-03-29T02:59:09;2.07;;;1.30;;
17207;SDS011;8720;48.488;9.202;2023-03-29T03:01:37;2.13;;;1.20;;
17207;SDS011;8720;48.488;9.202;2023-03-29T03:04:08;1.77;;;1.10;;
17207;SDS011;8720;48.488;9.202;2023-03-29T03:06:38;4.10;;;1.37;;
17207;SDS011;8720;48.488;9.202;2023-03-29T03:09:08;1.30;;;1.13;;
17207;SDS011;8720;48.488;9.202;2023-03-29T03:11:39;2.73;;;1.37;;
17207;SDS011;8720;48.488;9.202;2023-03-29T03:14:07;2.43;;;1.10;;
17207;SDS011;8720;48.488;9.202;2023-03-29T03:16:35;1.90;;;1.20;;
17207;SDS011;8720;48.488;9.202;2023-03-29T03:19:03;4.07;;;1.40;;
17207;SDS011;8720;48.488;9.202;2023-03-29T03:21:31;1.90;;;1.60;;
17207;SDS011;8720;48.488;9.202;2023-03-29T03:23:59;2.20;;;1.70;;
17207;SDS011;8720;48.488;9.202;2023-03-29T03:26:26;2.20;;;1.80;;
17207;SDS011;8720;48.488;9.202;2023-03-29T03:28:55;2.70;;;1.50;;
17207;SDS011;8720;48.488;9.202;2023-03-29T03:31:51;2.33;;;1.87;;
17207;SDS011;8720;48.488;9.202;2023-03-29T03:34:39;2.70;;;1.90;;
17207;SDS011;8720;48.488;9.202;2023-03-29T03:37:08;2.30;;;1.90;;
17207;SDS011;8720;48.488;9.202;2023-03-29T03:39:37;3.23;;;1.70;;
17207;SDS011;8720;48.488;9.202;2023-03-29T03:42:07;2.07;;;1.60;;
17207;SDS011;8720;48.488;9.202;2023-03-29T03:44:39;3.07;;;1.73;;
17207;SDS011;8720;48.488;9.202;2023-03-29T03:47:28;2.23;;;1.77;;
17207;SDS011;8720;48.488;9.202;2023-03-29T03:50:03;2.07;;;1.67;;
17207;SDS011;8720;48.488;9.202;2023-03-29T03:52:34;2.00;;;1.50;;
17207;SDS011;8720;48.488;9.202;2023-03-29T03:55:01;1.70;;;1.40;;
17207;SDS011;8720;48.488;9.202;2023-03-29T03:57:40;2.13;;;1.60;;
17207;SDS011;8720;48.488;9.202;2023-03-29T04:00:12;1.60;;;1.50;;
17207;SDS011;8720;48.488;9.202;2023-03-29T04:02:51;2.00;;;1.70;;
17207;SDS011;8720;48.488;9.202;2023-03-29T04:05:20;1.80;;;1.33;;
17207;SDS011;8720;48.488;9.202;2023-03-29T04:07:52;2.53;;;1.40;;
17207;SDS011;8720;48.488;9.202;2023-03-29T04:10:40;1.70;;;1.47;;
17207;SDS011;8720;48.488;9.202;2023-03-29T04:13:15;3.93;;;1.50;;
17207;SDS011;8720;48.488;9.202;2023-03-29T04:16:03;2.00;;;1.47;;
17207;SDS011;8720;48.488;9.202;2023-03-29T04:18:31;2.20;;;1.77;;
17207;SDS011;8720;48.488;9.202;2023-03-29T04:20:58;3.30;;;1.73;;
17207;SDS011;8720;48.488;9.202;2023-03-29T04:23:30;2.10;;;1.60;;
17207;SDS011;8720;48.488;9.202;2023-03-29T04:25:58;4.70;;;1.77;;
17207;SDS011;8720;48.488;9.202;2023-03-29T04:28:46;2.20;;;1.67;;
17207;SDS011;8720;48.488;9.202;2023-03-29T04:31:21;2.80;;;1.53;;
17207;SDS011;8720;48.488;9.202;2023-03-29T04:34:12;1.97;;;1.37;;
17207;SDS011;8720;48.488;9.202;2023-03-29T04:36:42;1.60;;;1.30;;
17207;SDS011;8720;48.488;9.202;2023-03-29T04:39:17;1.90;;;1.57;;
17207;SDS011;8720;48.488;9.202;2023-03-29T04:41:50;1.70;;;1.47;;
17207;SDS011;8720;48.488;9.202;2023-03-29T04:44:22;2.73;;;1.50;;
17207;SDS011;8720;48.488;9.202;2023-03-29T04:46:49;4.43;;;2.00;;
17207;SDS011;8720;48.488;9.202;2023-03-29T04:49:55;1.90;;;1.70;;
17207;SDS011;8720;48.488;9.202;2023-03-29T04:52:33;2.20;;;1.60;;
17207;SDS011;8720;48.488;9.202;2023-03-29T04:55:05;3.53;;;2.07;;
17207;SDS011;8720;48.488;9.202;2023-03-29T04:57:40;3.30;;;1.67;;
17207;SDS011;8720;48.488;9.202;2023-03-29T05:00:16;1.90;;;1.53;;
17207;SDS011;8720;48.488;9.202;2023-03-29T05:02:51;2.97;;;1.85;;
17207;SDS011;8720;48.488;9.202;2023-03-29T05:05:20;3.67;;;1.90;;
17207;SDS011;8720;48.488;9.202;2023-03-29T05:07:48;2.10;;;1.90;;
17207;SDS011;8720;48.488;9.202;2023-03-29T05:10:22;2.07;;;1.67;;
17207;SDS011;8720;48.488;9.202;2023-03-29T05:12:51;2.33;;;1.77;;
17207;SDS011;8720;48.488;9.202;2023-03-29T05:15:20;2.23;;;1.80;;
17207;SDS011;8720;48.488;9.202;2023-03-29T05:17:48;1.83;;;1.53;;
17207;SDS011;8720;48.488;9.202;2023-03-29T05:20:16;1.70;;;1.60;;
17207;SDS011;8720;48.488;9.202;2023-03-29T05:22:45;2.87;;;1.87;;
17207;SDS011;8720;48.488;9.202;2023-03-29T05:25:29;5.03;;;1.70;;
17207;SDS011;8720;48.488;9.202;2023-03-29T05:27:58;2.33;;;1.63;;
17207;SDS011;8720;48.488;9.202;2023-03-29T05:30:26;1.73;;;1.50;;
17207;SDS011;8720;48.488;9.202;2023-03-29T05:33:07;1.63;;;1.43;;
17207;SDS011;8720;48.488;9.202;2023-03-29T05:35:34;1.90;;;1.67;;
17207;SDS011;8720;48.488;9.202;2023-03-29T05:38:05;3.13;;;1.60;;
17207;SDS011;8720;48.488;9.202;2023-03-29T05:40:34;4.17;;;2.10;;
17207;SDS011;8720;48.488;9.202;2023-03-29T05:43:35;4.53;;;2.43;;
17207;SDS011;8720;48.488;9.202;2023-03-29T05:46:03;5.67;;;3.10;;
17207;SDS011;8720;48.488;9.202;2023-03-29T05:48:32;2.70;;;1.97;;
17207;SDS011;8720;48.488;9.202;2023-03-29T05:50:59;3.80;;;2.10;;
17207;SDS011;8720;48.488;9.202;2023-03-29T05:53:27;2.33;;;1.70;;
17207;SDS011;8720;48.488;9.202;2023-03-29T05:55:56;2.60;;;2.00;;
17207;SDS011;8720;48.488;9.202;2023-03-29T05:58:26;4.10;;;2.60;;
17207;SDS011;8720;48.488;9.202;2023-03-29T06:00:55;5.30;;;3.27;;
17207;SDS011;8720;48.488;9.202;2023-03-29T06:03:44;2.40;;;1.83;;
17207;SDS011;8720;48.488;9.202;2023-03-29T06:06:12;2.30;;;1.73;;
17207;SDS011;8720;48.488;9.202;2023-03-29T06:08:41;3.00;;;1.93;;
17207;SDS011;8720;48.488;9.202;2023-03-29T06:11:20;4.20;;;2.10;;
17207;SDS011;8720;48.488;9.202;2023-03-29T06:14:08;4.33;;;1.60;;
17207;SDS011;8720;48.488;9.202;2023-03-29T06:16:41;2.67;;;2.10;;
17207;SDS011;8720;48.488;9.202;2023-03-29T06:19:10;3.63;;;1.30;;
17207;SDS011;8720;48.488;9.202;2023-03-29T06:21:38;1.83;;;1.53;;
17207;SDS011;8720;48.488;9.202;2023-03-29T06:24:08;2.17;;;1.30;;
17207;SDS011;8720;48.488;9.202;2023-03-29T06:26:45;1.60;;;1.20;;
17207;SDS011;8720;48.488;9.202;2023-03-29T06:29:13;1.43;;;1.33;;
17207;SDS011;8720;48.488;9.202;2023-03-29T06:31:41;4.37;;;1.60;;
17207;SDS011;8720;48.488;9.202;2023-03-29T06:34:24;1.90;;;1.30;;
17207;SDS011;8720;48.488;9.202;2023-03-29T06:37:08;3.40;;;1.40;;
17207;SDS011;8720;48.488;9.202;2023-03-29T06:39:35;1.70;;;1.20;;
17207;SDS011;8720;48.488;9.202;2023-03-29T06:42:22;3.60;;;1.67;;
17207;SDS011;8720;48.488;9.202;2023-03-29T06:45:16;2.70;;;1.40;;
17207;SDS011;8720;48.488;9.202;2023-03-29T06:47:46;1.83;;;1.20;;
17207;SDS011;8720;48.488;9.202;2023-03-29T06:50:14;2.07;;;1.30;;
17207;SDS011;8720;48.488;9.202;2023-03-29T06:52:49;3.00;;;1.40;;
17207;SDS011;8720;48.488;9.202;2023-03-29T06:55:17;2.07;;;1.17;;
17207;SDS011;8720;48.488;9.202;2023-03-29T06:57:47;3.20;;;1.67;;
17207;SDS011;8720;48.488;9.202;2023-03-29T07:00:16;1.60;;;1.10;;
17207;SDS011;8720;48.488;9.202;2023-03-29T07:03:13;2.30;;;1.50;;
17207;SDS011;8720;48.488;9.202;2023-03-29T07:05:50;4.73;;;1.67;;
17207;SDS011;8720;48.488;9.202;2023-03-29T07:08:25;3.37;;;1.80;;
17207;SDS011;8720;48.488;9.202;2023-03-29T07:10:57;1.83;;;1.40;;
17207;SDS011;8720;48.488;9.202;2023-03-29T07:13:45;2.37;;;1.30;;
17207;SDS011;8720;48.488;9.202;2023-03-29T07:16:17;2.33;;;1.37;;
17207;SDS011;8720;48.488;9.202;2023-03-29T07:18:55;1.60;;;1.10;;
17207;SDS011;8720;48.488;9.202;2023-03-29T07:21:49;1.80;;;1.33;;
17207;SDS011;8720;48.488;9.202;2023-03-29T07:24:19;2.30;;;1.60;;
17207;SDS011;8720;48.488;9.202;2023-03-29T07:26:48;2.63;;;1.30;;
17207;SDS011;8720;48.488;9.202;2023-03-29T07:29:17;2.00;;;1.17;;
17207;SDS011;8720;48.488;9.202;2023-03-29T07:31:45;2.00;;;1.10;;
17207;SDS011;8720;48.488;9.202;2023-03-29T07:34:32;2.23;;;1.40;;
17207;SDS011;8720;48.488;9.202;2023-03-29T07:37:03;2.53;;;1.47;;
17207;SDS011;8720;48.488;9.202;2023-03-29T07:39:31;5.00;;;2.07;;
17207;SDS011;8720;48.488;9.202;2023-03-29T07:42:29;3.43;;;3.00;;
17207;SDS011;8720;48.488;9.202;2023-03-29T07:44:58;2.70;;;2.20;;
17207;SDS011;8720;48.488;9.202;2023-03-29T07:47:32;2.27;;;1.90;;
17207;SDS011;8720;48.488;9.202;2023-03-29T07:50:00;4.17;;;2.80;;
17207;SDS011;8720;48.488;9.202;2023-03-29T07:52:28;3.53;;;2.57;;
17207;SDS011;8720;48.488;9.202;2023-03-29T07:54:57;2.53;;;1.57;;
17207;SDS011;8720;48.488;9.202;2023-03-29T07:57:34;3.20;;;1.63;;
17207;SDS011;8720;48.488;9.202;2023-03-29T08:00:04;2.90;;;1.60;;
17207;SDS011;8720;48.488;9.202;2023-03-29T08:02:48;2.80;;;1.43;;
17207;SDS011;8720;48.488;9.202;2023-03-29T08:05:18;3.40;;;1.70;;
17207;SDS011;8720;48.488;9.202;2023-03-29T08:07:50;1.80;;;1.30;;
17207;SDS011;8720;48.488;9.202;2023-03-29T08:10:41;2.03;;;1.50;;
17207;SDS011;8720;48.488;9.202;2023-03-29T08:13:19;1.83;;;1.40;;
17207;SDS011;8720;48.488;9.202;2023-03-29T08:16:08;2.80;;;1.47;;
17207;SDS011;8720;48.488;9.202;2023-03-29T08:18:42;1.63;;;1.40;;
17207;SDS011;8720;48.488;9.202;2023-03-29T08:21:09;1.77;;;1.30;;
17207;SDS011;8720;48.488;9.202;2023-03-29T08:23:43;3.20;;;1.60;;
17207;SDS011;8720;48.488;9.202;2023-03-29T08:26:18;4.63;;;1.97;;
17207;SDS011;8720;48.488;9.202;2023-03-29T08:28:48;2.40;;;1.67;;
17207;SDS011;8720;48.488;9.202;2023-03-29T08:31:18;2.50;;;1.50;;
17207;SDS011;8720;48.488;9.202;2023-03-29T08:33:46;3.17;;;1.37;;
17207;SDS011;8720;48.488;9.202;2023-03-29T08:36:36;1.50;;;1.20;;
17207;SDS011;8720;48.488;9.202;2023-03-29T08:39:12;1.50;;;1.40;;
17207;SDS011;8720;48.488;9.202;2023-03-29T08:41:46;4.63;;;2.00;;
17207;SDS011;8720;48.488;9.202;2023-03-29T08:44:40;4.33;;;1.30;;
17207;SDS011;8720;48.488;9.202;2023-03-29T08:47:27;1.80;;;1.50;;
17207;SDS011;8720;48.488;9.202;2023-03-29T08:50:11;3.10;;;1.50;;
17207;SDS011;8720;48.488;9.202;2023-03-29T08:52:44;2.40;;;1.70;;
17207;SDS011;8720;48.488;9.202;2023-03-29T08:55:37;6.03;;;2.60;;
17207;SDS011;8720;48.488;9.202;2023-03-29T08:58:39;2.27;;;2.07;;
17207;SDS011;8720;48.488;9.202;2023-03-29T09:01:11;5.10;;;2.40;;
17207;SDS011;8720;48.488;9.202;2023-03-29T09:03:57;3.40;;;2.20;;
17207;SDS011;8720;48.488;9.202;2023-03-29T09:06:45;3.00;;;2.00;;
17207;SDS011;8720;48.488;9.202;2023-03-29T09:09:19;4.50;;;1.90;;
17207;SDS011;8720;48.488;9.202;2023-03-29T09:12:02;2.60;;;1.80;;
17207;SDS011;8720;48.488;9.202;2023-03-29T09:14:48;2.27;;;1.70;;
17207;SDS011;8720;48.488;9.202;2023-03-29T09:17:36;4.40;;;1.90;;
17207;SDS011;8720;48.488;9.202;2023-03-29T09:20:20;2.50;;;1.60;;
17207;SDS011;8720;48.488;9.202;2023-03-29T09:23:05;2.23;;;1.77;;
17207;SDS011;8720;48.488;9.202;2023-03-29T09:26:24;2.57;;;2.00;;
17207;SDS011;8720;48.488;9.202;2023-03-29T09:29:24;3.10;;;1.83;;
17207;SDS011;8720;48.488;9.202;2023-03-29T09:32:13;2.57;;;1.87;;
17207;SDS011;8720;48.488;9.202;2023-03-29T09:34:53;3.73;;;1.80;;
17207;SDS011;8720;48.488;9.202;2023-03-29T09:37:40;2.70;;;1.97;;
17207;SDS011;8720;48.488;9.202;2023-03-29T09:40:09;2.73;;;1.90;;
17207;SDS011;8720;48.488;9.202;2023-03-29T09:43:01;3.63;;;2.03;;
17207;SDS011;8720;48.488;9.202;2023-03-29T09:45:35;1.83;;;1.70;;
17207;SDS011;8720;48.488;9.202;2023-03-29T09:48:05;3.40;;;1.70;;
17207;SDS011;8720;48.488;9.202;2023-03-29T09:50:42;5.10;;;2.47;;
17207;SDS011;8720;48.488;9.202;2023-03-29T09:53:14;2.30;;;1.63;;
17207;SDS011;8720;48.488;9.202;2023-03-29T09:55:50;2.40;;;1.73;;
17207;SDS011;8720;48.488;9.202;2023-03-29T09:58:48;2.83;;;1.80;;
17207;SDS011;8720;48.488;9.202;2023-03-29T10:01:17;2.33;;;1.63;;
17207;SDS011;8720;48.488;9.202;2023-03-29T10:03:49;2.30;;;1.53;;
17207;SDS011;8720;48.488;9.202;2023-03-29T10:06:19;3.00;;;1.60;;
17207;SDS011;8720;48.488;9.202;2023-03-29T10:08:56;2.00;;;1.80;;
17207;SDS011;8720;48.488;9.202;2023-03-29T10:11:31;3.40;;;2.03;;
17207;SDS011;8720;48.488;9.202;2023-03-29T10:14:02;2.70;;;1.70;;
17207;SDS011;8720;48.488;9.202;2023-03-29T10:16:33;2.07;;;1.73;;
17207;SDS011;8720;48.488;9.202;2023-03-29T10:19:17;1.50;;;1.40;;
17207;SDS011;8720;48.488;9.202;2023-03-29T10:21:48;2.07;;;1.90;;
17207;SDS011;8720;48.488;9.202;2023-03-29T10:24:18;3.80;;;2.20;;
17207;SDS011;8720;48.488;9.202;2023-03-29T10:26:47;2.70;;;2.00;;
17207;SDS011;8720;48.488;9.202;2023-03-29T10:29:20;2.37;;;2.10;;
17207;SDS011;8720;48.488;9.202;2023-03-29T10:31:48;4.30;;;1.83;;
17207;SDS011;8720;48.488;9.202;2023-03-29T10:34:17;2.40;;;1.67;;
17207;SDS011;8720;48.488;9.202;2023-03-29T10:36:50;3.10;;;2.00;;
17207;SDS011;8720;48.488;9.202;2023-03-29T10:39:26;3.27;;;2.17;;
17207;SDS011;8720;48.488;9.202;2023-03-29T10:41:58;3.30;;;2.00;;
17207;SDS011;8720;48.488;9.202;2023-03-29T10:44:28;1.93;;;1.73;;
17207;SDS011;8720;48.488;9.202;2023-03-29T10:47:06;3.97;;;2.50;;
17207;SDS011;8720;48.488;9.202;2023-03-29T10:49:44;2.97;;;2.17;;
17207;SDS011;8720;48.488;9.202;2023-03-29T10:52:16;2.70;;;2.00;;
17207;SDS011;8720;48.488;9.202;2023-03-29T10:54:44;3.63;;;2.00;;
17207;SDS011;8720;48.488;9.202;2023-03-29T10:57:13;1.83;;;1.50;;
17207;SDS011;8720;48.488;9.202;2023-03-29T10:59:53;2.83;;;1.77;;
17207;SDS011;8720;48.488;9.202;2023-03-29T11:02:35;1.90;;;1.30;;
17207;SDS011;8720;48.488;9.202;2023-03-29T11:05:53;1.87;;;1.60;;
17207;SDS011;8720;48.488;9.202;2023-03-29T11:11:34;2.57;;;1.10;;
17207;SDS011;8720;48.488;9.202;2023-03-29T11:14:18;2.23;;;1.40;;
17207;SDS011;8720;48.488;9.202;2023-03-29T11:17:03;3.13;;;1.40;;
17207;SDS011;8720;48.488;9.202;2023-03-29T11:19:52;2.23;;;1.40;;
17207;SDS011;8720;48.488;9.202;2023-03-29T11:22:33;2.80;;;1.50;;
17207;SDS011;8720;48.488;9.202;2023-03-29T11:25:19;1.73;;;1.20;;
17207;SDS011;8720;48.488;9.202;2023-03-29T11:28:02;1.90;;;1.40;;
17207;SDS011;8720;48.488;9.202;2023-03-29T11:30:41;1.70;;;1.20;;
17207;SDS011;8720;48.488;9.202;2023-03-29T11:33:23;2.27;;;1.77;;
17207;SDS011;8720;48.488;9.202;2023-03-29T11:36:08;1.53;;;1.10;;
17207;SDS011;8720;48.488;9.202;2023-03-29T11:38:46;3.30;;;2.00;;
17207;SDS011;8720;48.488;9.202;2023-03-29T11:41:29;3.53;;;2.60;;
17207;SDS011;8720;48.488;9.202;2023-03-29T11:44:03;2.07;;;1.53;;
17207;SDS011;8720;48.488;9.202;2023-03-29T11:46:42;2.30;;;1.60;;
17207;SDS011;8720;48.488;9.202;2023-03-29T11:49:17;2.10;;;1.50;;
17207;SDS011;8720;48.488;9.202;2023-03-29T11:51:52;1.40;;;1.30;;
17207;SDS011;8720;48.488;9.202;2023-03-29T11:54:29;1.33;;;1.20;;
17207;SDS011;8720;48.488;9.202;2023-03-29T11:57:06;1.80;;;1.63;;
17207;SDS011;8720;48.488;9.202;2023-03-29T11:59:46;1.77;;;1.43;;
17207;SDS011;8720;48.488;9.202;2023-03-29T12:02:23;3.00;;;1.93;;
17207;SDS011;8720;48.488;9.202;2023-03-29T12:05:00;2.70;;;1.70;;
17207;SDS011;8720;48.488;9.202;2023-03-29T12:07:38;2.67;;;1.63;;
17207;SDS011;8720;48.488;9.202;2023-03-29T12:10:15;1.70;;;1.60;;
17207;SDS011;8720;48.488;9.202;2023-03-29T12:12:48;2.87;;;1.40;;
17207;SDS011;8720;48.488;9.202;2023-03-29T12:15:26;2.30;;;1.30;;
17207;SDS011;8720;48.488;9.202;2023-03-29T12:18:00;3.83;;;1.50;;
17207;SDS011;8720;48.488;9.202;2023-03-29T12:20:41;2.23;;;1.27;;
17207;SDS011;8720;48.488;9.202;2023-03-29T12:23:15;4.30;;;1.97;;
17207;SDS011;8720;48.488;9.202;2023-03-29T12:25:45;1.67;;;1.23;;
17207;SDS011;8720;48.488;9.202;2023-03-29T12:28:39;2.00;;;1.60;;
17207;SDS011;8720;48.488;9.202;2023-03-29T12:31:33;4.10;;;1.53;;
17207;SDS011;8720;48.488;9.202;2023-03-29T12:34:18;1.90;;;1.30;;
17207;SDS011;8720;48.488;9.202;2023-03-29T12:37:39;1.73;;;1.40;;
17207;SDS011;8720;48.488;9.202;2023-03-29T12:40:38;1.30;;;1.00;;
17207;SDS011;8720;48.488;9.202;2023-03-29T12:43:29;2.13;;;1.53;;
17207;SDS011;8720;48.488;9.202;2023-03-29T12:46:30;2.00;;;1.40;;
17207;SDS011;8720;48.488;9.202;2023-03-29T12:49:08;2.77;;;1.80;;
17207;SDS011;8720;48.488;9.202;2023-03-29T12:51:45;2.37;;;1.57;;
17207;SDS011;8720;48.488;9.202;2023-03-29T12:54:14;2.27;;;1.33;;
17207;SDS011;8720;48.488;9.202;2023-03-29T12:56:53;2.70;;;1.67;;
17207;SDS011;8720;48.488;9.202;2023-03-29T12:59:26;4.20;;;1.60;;
17207;SDS011;8720;48.488;9.202;2023-03-29T13:04:57;3.23;;;2.10;;
17207;SDS011;8720;48.488;9.202;2023-03-29T13:07:29;2.90;;;2.10;;
17207;SDS011;8720;48.488;9.202;2023-03-29T13:10:27;3.83;;;2.30;;
17207;SDS011;8720;48.488;9.202;2023-03-29T13:13:10;1.80;;;1.60;;
17207;SDS011;8720;48.488;9.202;2023-03-29T13:15:44;1.70;;;1.50;;
17207;SDS011;8720;48.488;9.202;2023-03-29T13:18:16;2.83;;;1.53;;
17207;SDS011;8720;48.488;9.202;2023-03-29T13:21:02;1.50;;;1.20;;
17207;SDS011;8720;48.488;9.202;2023-03-29T13:23:43;4.07;;;1.50;;
17207;SDS011;8720;48.488;9.202;2023-03-29T13:26:25;3.33;;;1.30;;
17207;SDS011;8720;48.488;9.202;2023-03-29T13:29:20;2.03;;;1.20;;
17207;SDS011;8720;48.488;9.202;2023-03-29T13:32:21;1.77;;;1.30;;
17207;SDS011;8720;48.488;9.202;2023-03-29T13:35:09;1.40;;;1.30;;
17207;SDS011;8720;48.488;9.202;2023-03-29T13:37:54;3.00;;;1.70;;
17207;SDS011;8720;48.488;9.202;2023-03-29T13:40:42;8.73;;;1.67;;
17207;SDS011;8720;48.488;9.202;2023-03-29T13:43:28;1.97;;;1.10;;
17207;SDS011;8720;48.488;9.202;2023-03-29T13:48:56;3.10;;;1.43;;
17207;SDS011;8720;48.488;9.202;2023-03-29T13:51:40;2.90;;;1.53;;
17207;SDS011;8720;48.488;9.202;2023-03-29T13:54:27;2.70;;;2.03;;
17207;SDS011;8720;48.488;9.202;2023-03-29T13:57:04;2.77;;;1.60;;
17207;SDS011;8720;48.488;9.202;2023-03-29T13:59:46;3.47;;;1.63;;
17207;SDS011;8720;48.488;9.202;2023-03-29T14:02:26;2.53;;;1.80;;
17207;SDS011;8720;48.488;9.202;2023-03-29T14:05:07;4.03;;;1.50;;
17207;SDS011;8720;48.488;9.202;2023-03-29T14:07:40;3.43;;;1.67;;
17207;SDS011;8720;48.488;9.202;2023-03-29T14:10:16;1.60;;;1.23;;
17207;SDS011;8720;48.488;9.202;2023-03-29T14:12:50;3.67;;;1.43;;
17207;SDS011;8720;48.488;9.202;2023-03-29T14:15:21;1.60;;;1.33;;
17207;SDS011;8720;48.488;9.202;2023-03-29T14:20:28;2.53;;;1.70;;
17207;SDS011;8720;48.488;9.202;2023-03-29T14:22:58;2.20;;;1.40;;
17207;SDS011;8720;48.488;9.202;2023-03-29T14:25:27;2.93;;;1.40;;
17207;SDS011;8720;48.488;9.202;2023-03-29T14:27:56;3.20;;;1.30;;
17207;SDS011;8720;48.488;9.202;2023-03-29T14:30:24;5.10;;;1.80;;
17207;SDS011;8720;48.488;9.202;2023-03-29T14:32:54;5.07;;;1.60;;
17207;SDS011;8720;48.488;9.202;2023-03-29T14:35:26;3.40;;;2.00;;
17207;SDS011;8720;48.488;9.202;2023-03-29T14:37:57;3.07;;;1.73;;
17207;SDS011;8720;48.488;9.202;2023-03-29T14:40:25;2.63;;;1.87;;
17207;SDS011;8720;48.488;9.202;2023-03-29T14:42:56;3.23;;;2.13;;
17207;SDS011;8720;48.488;9.202;2023-03-29T14:45:29;2.23;;;1.73;;
17207;SDS011;8720;48.488;9.202;2023-03-29T14:47:57;2.47;;;1.37;;
17207;SDS011;8720;48.488;9.202;2023-03-29T14:50:26;2.63;;;1.70;;
17207;SDS011;8720;48.488;9.202;2023-03-29T14:52:56;3.83;;;1.70;;
17207;SDS011;8720;48.488;9.202;2023-03-29T14:55:28;2.93;;;2.33;;
17207;SDS011;8720;48.488;9.202;2023-03-29T14:57:55;3.57;;;2.50;;
17207;SDS011;8720;48.488;9.202;2023-03-29T15:00:26;3.60;;;2.40;;
17207;SDS011;8720;48.488;9.202;2023-03-29T15:02:56;2.70;;;1.83;;
17207;SDS011;8720;48.488;9.202;2023-03-29T15:05:33;3.83;;;2.10;;
17207;SDS011;8720;48.488;9.202;2023-03-29T15:08:04;2.30;;;1.60;;
17207;SDS011;8720;48.488;9.202;2023-03-29T15:10:39;2.90;;;2.30;;
17207;SDS011;8720;48.488;9.202;2023-03-29T15:13:10;6.13;;;2.53;;
17207;SDS011;8720;48.488;9.202;2023-03-29T15:15:45;2.60;;;2.30;;
17207;SDS011;8720;48.488;9.202;2023-03-29T15:18:17;3.80;;;2.20;;
17207;SDS011;8720;48.488;9.202;2023-03-29T15:20:54;2.93;;;2.07;;
17207;SDS011;8720;48.488;9.202;2023-03-29T15:23:22;5.80;;;2.33;;
17207;SDS011;8720;48.488;9.202;2023-03-29T15:25:55;6.10;;;2.40;;
17207;SDS011;8720;48.488;9.202;2023-03-29T15:28:26;3.60;;;2.47;;
17207;SDS011;8720;48.488;9.202;2023-03-29T15:30:57;4.83;;;2.07;;
17207;SDS011;8720;48.488;9.202;2023-03-29T15:33:32;4.43;;;3.10;;
17207;SDS011;8720;48.488;9.202;2023-03-29T15:36:01;5.70;;;2.13;;
17207;SDS011;8720;48.488;9.202;2023-03-29T15:38:31;4.43;;;1.63;;
17207;SDS011;8720;48.488;9.202;2023-03-29T15:41:02;2.87;;;1.87;;
17207;SDS011;8720;48.488;9.202;2023-03-29T15:43:30;3.10;;;1.80;;
17207;SDS011;8720;48.488;9.202;2023-03-29T15:45:58;2.30;;;1.63;;
17207;SDS011;8720;48.488;9.202;2023-03-29T15:48:25;2.87;;;1.37;;
17207;SDS011;8720;48.488;9.202;2023-03-29T15:50:54;2.47;;;2.10;;
17207;SDS011;8720;48.488;9.202;2023-03-29T15:53:21;4.17;;;1.60;;
17207;SDS011;8720;48.488;9.202;2023-03-29T15:55:49;2.67;;;1.80;;
17207;SDS011;8720;48.488;9.202;2023-03-29T15:58:23;2.30;;;1.40;;
17207;SDS011;8720;48.488;9.202;2023-03-29T16:00:53;1.97;;;1.40;;
17207;SDS011;8720;48.488;9.202;2023-03-29T16:03:35;4.60;;;1.67;;
17207;SDS011;8720;48.488;9.202;2023-03-29T16:06:02;2.03;;;1.53;;
17207;SDS011;8720;48.488;9.202;2023-03-29T16:08:31;1.93;;;1.60;;